LiveATC.Net - Listen to live air traffic control over the Internet!


ICAO: KAMA  IATA: AMA   Airport: Rick Husband Amarillo International Airport
City: Amarillo   State/Province: Texas
Country: United States   Continent: North America
KAMA METAR Weather: KAMA 171953Z 10013G21KT 10SM FEW049 32/16 A3019 RMK AO2 SLP166 T03170156
KAMA ADS-B Flight Tracking  (ADSBExchange)
KAMA Flight Activity (FlightAware)
KAMA Airport Info   (iFlightPlanner)
KAMA VFR Sectional Chart   (iFlightPlanner) 
KAMA IFR Low Altitude Chart   (iFlightPlanner) 
KAMA IFR High Altitude Chart   (iFlightPlanner) 

KAMA Twr/App/Center
Feed Status: UP   Listeners: 2
Listen in your browser - HTML5 player (in browser, HTML5)
Click here to listen with your own player (launches your MP3 player)
Archive Access: KAMA Twr/App/Center
FacilityFrequency
Albuquerque Center127.850
Amarillo Approach119.500
Amarillo Tower118.300

NOTICE

Unauthorized use prohibited. See LiveATC.net Terms of Service


Airport/ARTCC Code
Frequency Search
(e.g., 124.400, 128.75)
Site-wide search
 


Browse Feeds
Top 50 Feeds
HF Oceanic Feeds
Coverage Map
Bad Weather Areas

LiveATC FAQ

Increase Coverage

Contact LiveATC.net
Press Inquiries

LiveATC on iPhone
LiveATC on Android

LiveATC Mobile
(Mobile browser)

ATC Audio Archives
Interesting Recordings

LiveATC Forums


Home Page
About LiveATC.net


Terms of Use
Privacy Policy

AIRMETs/SIGMETs

FAA Airport Status
NAS Status
Arrival Demand


Server Software By:
Icecast.org
Liquidsoap